Time;durP1;ratioP1;P1;durP2;ratioP2;P2;SDS_P1;SDS_P2;PMS_P1;PMS_P2;Temp;Humidity;BMP_temperature;BMP_pressure;BME280_temperature;BME280_humidity;BME280_pressure;Samples;Min_cycle;Max_cycle;Signal;HPM_P1;HPM_P2
2021/06/13 00:00:03;;;;;;;3.90;3.58;;;20.70;99.90;;;;;;5053110;28;20075;-73
2021/06/13 00:02:29;;;;;;;4.63;3.70;;;20.70;99.90;;;;;;5054337;28;20025;-72
2021/06/13 00:04:55;;;;;;;3.85;3.47;;;20.80;99.90;;;;;;5054026;28;20029;-73
2021/06/13 00:07:21;;;;;;;5.68;3.47;;;20.80;99.90;;;;;;5052841;28;20035;-72
2021/06/13 00:09:47;;;;;;;3.97;3.55;;;20.80;99.90;;;;;;5052832;28;20058;-71
2021/06/13 00:12:13;;;;;;;4.13;3.72;;;20.80;99.90;;;;;;5052775;28;20024;-71
2021/06/13 00:14:39;;;;;;;4.63;3.95;;;20.90;99.90;;;;;;5054115;28;20466;-72
2021/06/13 00:17:05;;;;;;;4.75;4.15;;;20.90;99.90;;;;;;5052752;28;20033;-71
2021/06/13 00:19:31;;;;;;;4.55;3.60;;;20.90;99.90;;;;;;5054043;28;20078;-71
2021/06/13 00:21:57;;;;;;;5.68;4.00;;;20.90;99.90;;;;;;5053680;28;20064;-71
2021/06/13 00:24:23;;;;;;;3.70;3.40;;;21.00;99.90;;;;;;5053740;28;20048;-70
2021/06/13 00:26:49;;;;;;;4.80;3.60;;;20.90;99.90;;;;;;5052433;28;20025;-71
2021/06/13 00:29:15;;;;;;;5.25;4.07;;;21.00;99.90;;;;;;5053879;28;20044;-71
2021/06/13 00:31:41;;;;;;;4.55;3.30;;;21.00;99.90;;;;;;5053783;28;20040;-69
2021/06/13 00:34:07;;;;;;;3.97;3.67;;;21.00;99.90;;;;;;5053739;28;20480;-70
2021/06/13 00:36:32;;;;;;;4.22;3.83;;;21.00;99.90;;;;;;5052370;28;20025;-71
2021/06/13 00:38:59;;;;;;;4.90;3.88;;;21.00;99.90;;;;;;5053688;28;20040;-71
2021/06/13 00:41:25;;;;;;;5.55;3.50;;;21.00;99.90;;;;;;5053212;28;20055;-71
2021/06/13 00:43:51;;;;;;;3.42;3.13;;;21.00;99.90;;;;;;5052299;28;20037;-73
2021/06/13 00:46:17;;;;;;;4.38;3.70;;;21.00;99.90;;;;;;5051821;28;20036;-72
2021/06/13 00:48:44;;;;;;;4.95;3.58;;;21.00;99.90;;;;;;5053370;28;20091;-72
2021/06/13 00:51:10;;;;;;;3.42;3.13;;;21.10;99.90;;;;;;5053517;28;20074;-72
2021/06/13 00:53:36;;;;;;;5.13;3.83;;;21.10;99.90;;;;;;5053256;28;20025;-71
2021/06/13 00:56:02;;;;;;;6.35;3.90;;;21.10;99.90;;;;;;5052038;28;20029;-72
2021/06/13 00:58:28;;;;;;;6.22;3.85;;;21.10;99.90;;;;;;5053591;28;20032;-71
2021/06/13 01:00:54;;;;;;;6.18;3.70;;;21.10;99.90;;;;;;5052057;28;20021;-72
2021/06/13 01:03:21;;;;;;;4.32;3.78;;;21.10;99.90;;;;;;5053282;28;20032;-73
2021/06/13 01:05:47;;;;;;;6.05;3.72;;;21.00;99.90;;;;;;5052567;28;20432;-73
2021/06/13 01:08:47;;;;;;;4.13;3.50;;;21.00;99.90;;;;;;5053136;28;20044;-73
2021/06/13 01:11:36;;;;;;;5.28;3.30;;;21.00;99.90;;;;;;5046711;28;20051;-71
2021/06/13 01:14:20;;;;;;;4.40;3.70;;;21.00;99.90;;;;;;5052967;28;20017;-74
2021/06/13 01:17:01;;;;;;;5.95;3.63;;;21.00;99.90;;;;;;5052853;28;20033;-74
2021/06/13 01:19:29;;;;;;;4.50;3.95;;;20.90;99.90;;;;;;5052752;28;20366;-74
2021/06/13 01:22:29;;;;;;;11.90;3.53;;;20.90;99.90;;;;;;5053068;28;20025;-75
2021/06/13 01:25:29;;;;;;;4.60;3.60;;;20.70;99.90;;;;;;5052472;28;20451;-75
2021/06/13 01:28:32;;;;;;;7.82;4.10;;;20.80;99.90;;;;;;5050860;28;20405;-75
2021/06/13 01:31:01;;;;;;;5.82;3.78;;;20.70;99.90;;;;;;5052945;28;20037;-75
2021/06/13 01:33:30;;;;;;;7.10;4.18;;;20.60;99.90;;;;;;5052874;28;20017;-74
2021/06/13 01:35:56;;;;;;;3.92;3.33;;;20.60;99.90;;;;;;5051551;28;20021;-74
2021/06/13 01:38:23;;;;;;;4.88;3.65;;;20.70;99.90;;;;;;5052830;28;20060;-75
2021/06/13 01:40:49;;;;;;;4.32;3.80;;;20.70;99.90;;;;;;5052837;28;20029;-73
2021/06/13 01:43:16;;;;;;;8.05;4.70;;;20.70;99.90;;;;;;5052777;28;20037;-74
2021/06/13 01:45:44;;;;;;;3.83;3.53;;;20.80;99.90;;;;;;5052719;28;20029;-74
2021/06/13 01:48:13;;;;;;;4.72;4.25;;;20.70;99.90;;;;;;5051043;28;20025;-74
2021/06/13 01:50:41;;;;;;;8.35;4.00;;;20.70;99.90;;;;;;5051490;28;20033;-73
2021/06/13 01:53:10;;;;;;;4.93;3.80;;;20.70;99.90;;;;;;5051397;28;20029;-73
2021/06/13 01:55:37;;;;;;;4.68;4.05;;;20.70;99.90;;;;;;5051292;28;20021;-72
2021/06/13 01:58:04;;;;;;;6.30;4.10;;;20.70;99.90;;;;;;5053112;28;20458;-72
2021/06/13 02:00:31;;;;;;;4.55;3.85;;;20.70;99.90;;;;;;5052687;28;20017;-73
2021/06/13 02:02:58;;;;;;;5.95;4.40;;;20.70;99.90;;;;;;5052958;28;20033;-74
2021/06/13 02:05:26;;;;;;;4.82;4.38;;;20.70;99.90;;;;;;5052667;28;20025;-72
2021/06/13 02:07:54;;;;;;;6.28;4.13;;;20.80;99.90;;;;;;5051227;28;20098;-73
2021/06/13 02:10:21;;;;;;;5.30;4.35;;;20.80;99.90;;;;;;5052666;28;20032;-73
2021/06/13 02:12:49;;;;;;;5.05;3.55;;;20.80;99.90;;;;;;5052718;28;20068;-74
2021/06/13 02:15:21;;;;;;;5.43;4.50;;;20.80;99.90;;;;;;5052538;28;20478;-73
2021/06/13 02:17:48;;;;;;;4.63;3.90;;;20.80;99.90;;;;;;5053429;28;20481;-72
2021/06/13 02:20:19;;;;;;;5.28;4.68;;;20.80;99.90;;;;;;5055086;28;20032;-71
2021/06/13 02:22:47;;;;;;;5.38;4.07;;;20.80;99.90;;;;;;5056267;28;20033;-72
2021/06/13 02:25:13;;;;;;;5.53;4.15;;;20.90;99.90;;;;;;5055788;28;20103;-71
2021/06/13 02:27:39;;;;;;;4.45;4.03;;;20.90;99.90;;;;;;5056084;28;20493;-73
2021/06/13 02:30:08;;;;;;;5.35;3.58;;;20.90;99.90;;;;;;5055777;28;20401;-72
2021/06/13 02:32:35;;;;;;;4.32;3.70;;;20.90;99.90;;;;;;5053883;28;20470;-72
2021/06/13 02:35:04;;;;;;;4.80;3.97;;;20.90;99.90;;;;;;5054648;28;20467;-72
2021/06/13 02:37:31;;;;;;;7.53;3.80;;;20.90;99.90;;;;;;5054622;28;20044;-73
2021/06/13 02:39:57;;;;;;;4.25;3.85;;;21.10;99.90;;;;;;5054579;28;20025;-72
2021/06/13 02:42:23;;;;;;;4.78;4.20;;;21.10;99.90;;;;;;5055839;28;20033;-72
2021/06/13 02:44:49;;;;;;;4.72;4.20;;;21.10;99.90;;;;;;5054484;28;20025;-71
2021/06/13 02:47:15;;;;;;;7.82;4.38;;;21.10;99.90;;;;;;5055687;28;20036;-73
2021/06/13 02:49:42;;;;;;;7.15;4.70;;;21.00;99.90;;;;;;5055769;28;20029;-73
2021/06/13 02:52:33;;;;;;;5.03;4.22;;;21.00;99.90;;;;;;5054322;28;20381;-72
2021/06/13 02:55:01;;;;;;;5.78;4.32;;;20.80;99.90;;;;;;5054331;28;20374;-73
2021/06/13 02:57:41;;;;;;;9.85;5.57;;;20.80;99.90;;;;;;5055548;28;20115;-73
2021/06/13 03:00:09;;;;;;;6.05;5.45;;;20.80;99.90;;;;;;5055378;28;20045;-73
2021/06/13 03:02:39;;;;;;;7.55;6.18;;;20.60;99.90;;;;;;5055426;28;20025;-73
2021/06/13 03:05:07;;;;;;;5.88;5.32;;;20.50;99.90;;;;;;5055479;28;20123;-73
2021/06/13 03:07:35;;;;;;;6.85;5.90;;;20.30;99.90;;;;;;5055616;28;20044;-73
2021/06/13 03:10:06;;;;;;;12.45;6.18;;;20.30;99.90;;;;;;5055119;28;20036;-73
2021/06/13 03:12:33;;;;;;;;;;;20.30;99.90;;;;;;5054340;28;20473;-74
2021/06/13 03:15:00;;;;;;;6.97;6.28;;;20.30;99.90;;;;;;5053930;28;20364;-73
2021/06/13 03:17:27;;;;;;;8.85;6.55;;;20.30;99.90;;;;;;5053849;28;20481;-73
2021/06/13 03:19:55;;;;;;;9.40;6.70;;;20.20;99.90;;;;;;5053873;28;20053;-72
2021/06/13 03:22:21;;;;;;;12.45;7.57;;;20.10;99.90;;;;;;5055181;28;20021;-74
2021/06/13 03:24:50;;;;;;;7.55;6.45;;;20.10;99.90;;;;;;5054717;28;20048;-73
2021/06/13 03:27:18;;;;;;;9.32;7.03;;;20.10;99.90;;;;;;5054546;28;20099;-72
2021/06/13 03:29:47;;;;;;;9.85;6.63;;;20.10;99.90;;;;;;5037306;28;20126;-72
2021/06/13 03:32:15;;;;;;;11.93;7.03;;;20.10;99.90;;;;;;5053711;28;20032;-72
2021/06/13 03:34:42;;;;;;;7.95;6.55;;;20.20;99.90;;;;;;5053569;28;20021;-72
2021/06/13 03:37:10;;;;;;;9.10;6.53;;;20.20;99.90;;;;;;5054914;28;20033;-73
2021/06/13 03:39:39;;;;;;;10.75;7.30;;;20.30;99.90;;;;;;5053425;28;20040;-71
2021/06/13 03:42:06;;;;;;;9.25;7.10;;;20.20;99.90;;;;;;5054737;28;20025;-71
2021/06/13 03:44:33;;;;;;;9.43;7.68;;;20.20;99.90;;;;;;5054665;28;20060;-72
2021/06/13 03:47:00;;;;;;;7.35;6.60;;;20.10;99.90;;;;;;5054600;28;20123;-72
2021/06/13 03:49:26;;;;;;;7.88;7.07;;;20.00;99.90;;;;;;5053518;28;20354;-73
2021/06/13 03:51:53;;;;;;;9.05;6.80;;;20.00;99.90;;;;;;5054390;28;20025;-71
2021/06/13 03:54:20;;;;;;;8.93;7.15;;;19.90;99.90;;;;;;5054549;28;20025;-72
2021/06/13 03:56:51;;;;;;;9.98;7.45;;;19.90;99.90;;;;;;5052938;28;20041;-73
2021/06/13 03:59:19;;;;;;;8.18;6.50;;;19.90;99.90;;;;;;5053150;28;20431;-72
2021/06/13 04:01:46;;;;;;;8.63;5.95;;;19.90;99.90;;;;;;5054416;28;20424;-74
2021/06/13 04:04:15;;;;;;;10.50;5.95;;;19.90;99.90;;;;;;5052672;28;20028;-73
2021/06/13 04:06:44;;;;;;;7.80;5.68;;;19.90;99.90;;;;;;5052899;28;20433;-73
2021/06/13 04:09:12;;;;;;;8.05;6.30;;;19.90;99.90;;;;;;5054205;28;20029;-72
2021/06/13 04:11:39;;;;;;;11.77;7.18;;;20.00;99.90;;;;;;5053063;28;20056;-72
2021/06/13 04:14:06;;;;;;;7.78;6.30;;;19.90;99.90;;;;;;5054393;28;20107;-72
2021/06/13 04:16:32;;;;;;;7.95;5.70;;;19.90;99.90;;;;;;5052814;28;20033;-72
2021/06/13 04:18:58;;;;;;;11.10;6.15;;;19.90;99.90;;;;;;5052809;28;20094;-72
2021/06/13 04:21:25;;;;;;;8.15;6.45;;;19.80;99.90;;;;;;5052689;28;20106;-73
2021/06/13 04:23:51;;;;;;;8.68;7.68;;;19.80;99.90;;;;;;5052671;28;20025;-73
2021/06/13 04:26:20;;;;;;;9.25;7.18;;;19.70;99.90;;;;;;5053517;28;20044;-74
2021/06/13 04:28:49;;;;;;;7.72;6.95;;;19.70;99.90;;;;;;5052433;28;20066;-72
2021/06/13 04:31:17;;;;;;;10.18;7.68;;;19.60;99.90;;;;;;5053968;28;20469;-74
2021/06/13 04:33:47;;;;;;;9.68;6.70;;;19.50;99.90;;;;;;5052482;28;20038;-76
2021/06/13 04:36:14;;;;;;;9.60;6.90;;;19.50;99.90;;;;;;5052237;28;20029;-73
2021/06/13 04:38:41;;;;;;;9.65;7.50;;;19.40;99.90;;;;;;5053243;28;20037;-73
2021/06/13 04:41:08;;;;;;;11.88;8.05;;;19.30;99.90;;;;;;5051719;28;20025;-76
2021/06/13 04:43:36;;;;;;;15.75;9.07;;;19.30;99.90;;;;;;5052253;28;20481;-74
2021/06/13 04:46:03;;;;;;;14.10;8.18;;;19.30;99.90;;;;;;5052300;28;20105;-74
2021/06/13 04:48:29;;;;;;;10.52;8.25;;;19.20;99.90;;;;;;5054055;28;20041;-73
2021/06/13 04:51:01;;;;;;;8.77;7.82;;;19.20;99.90;;;;;;5051848;28;20566;-75
2021/06/13 04:53:52;;;;;;;13.38;8.18;;;19.20;99.90;;;;;;5052615;28;20032;-73
2021/06/13 04:56:44;;;;;;;10.35;7.95;;;19.10;99.90;;;;;;5053620;28;20020;-72
2021/06/13 04:59:10;;;;;;;8.35;7.50;;;19.10;99.90;;;;;;5036377;28;20029;-71
2021/06/13 05:01:39;;;;;;;10.07;7.32;;;19.10;99.90;;;;;;5053895;28;20025;-74
2021/06/13 05:04:05;;;;;;;10.15;7.05;;;19.00;99.90;;;;;;5053558;28;20033;-73
2021/06/13 05:06:30;;;;;;;8.10;7.13;;;19.00;99.90;;;;;;5051970;28;20033;-73
2021/06/13 05:08:56;;;;;;;11.93;7.72;;;19.00;99.90;;;;;;5053219;28;20031;-74
2021/06/13 05:11:22;;;;;;;8.98;7.55;;;19.00;99.90;;;;;;5051497;28;20074;-73
2021/06/13 05:13:48;;;;;;;10.05;6.57;;;18.90;99.90;;;;;;5051796;28;20100;-73
2021/06/13 05:16:14;;;;;;;9.65;6.80;;;18.90;99.90;;;;;;5051700;28;20545;-73
2021/06/13 05:18:40;;;;;;;9.18;7.45;;;18.90;99.90;;;;;;5051720;28;20162;-73
2021/06/13 05:21:06;;;;;;;11.15;8.25;;;19.00;99.90;;;;;;5052987;28;20028;-73
2021/06/13 05:23:32;;;;;;;9.45;8.20;;;18.90;99.90;;;;;;5053014;28;20462;-73
2021/06/13 05:26:00;;;;;;;12.85;8.90;;;18.90;99.90;;;;;;5052423;28;20052;-73
2021/06/13 05:28:27;;;;;;;10.18;8.10;;;18.90;99.90;;;;;;5051504;28;20482;-73
2021/06/13 05:30:53;;;;;;;9.90;8.27;;;18.90;99.90;;;;;;5051664;28;20029;-73
2021/06/13 05:33:19;;;;;;;9.95;8.82;;;18.90;99.90;;;;;;5051616;28;20385;-73
2021/06/13 05:35:47;;;;;;;10.63;8.32;;;18.90;99.90;;;;;;5052883;28;20021;-73
2021/06/13 05:38:13;;;;;;;8.88;7.93;;;19.00;99.90;;;;;;5052778;28;20032;-73
2021/06/13 05:40:40;;;;;;;9.23;7.57;;;19.10;99.90;;;;;;5052826;28;20025;-72
2021/06/13 05:43:10;;;;;;;9.27;7.05;;;19.10;99.90;;;;;;5051500;28;20029;-72
2021/06/13 05:45:38;;;;;;;10.38;8.10;;;19.10;99.90;;;;;;5051404;28;20462;-73
2021/06/13 05:48:05;;;;;;;7.53;6.78;;;19.10;99.90;;;;;;5052450;28;20025;-72
2021/06/13 05:50:31;;;;;;;9.45;7.63;;;19.10;99.90;;;;;;5053280;28;20037;-72
2021/06/13 05:52:58;;;;;;;11.43;8.57;;;19.10;99.90;;;;;;5056876;28;20138;-73
2021/06/13 05:55:24;;;;;;;10.20;8.10;;;19.00;99.90;;;;;;5056688;28;20108;-72
2021/06/13 05:57:50;;;;;;;8.02;7.22;;;19.10;99.90;;;;;;5055508;28;20032;-72
2021/06/13 06:00:25;;;;;;;11.40;8.70;;;19.00;99.90;;;;;;5056620;28;20373;-71
2021/06/13 06:02:51;;;;;;;10.27;8.10;;;19.00;99.90;;;;;;5056426;28;20451;-72
2021/06/13 06:05:18;;;;;;;11.75;10.13;;;19.10;99.90;;;;;;5056748;28;20040;-72
2021/06/13 06:07:45;;;;;;;10.02;8.15;;;19.20;99.90;;;;;;5056506;28;20477;-72
2021/06/13 06:10:12;;;;;;;10.40;8.15;;;19.30;99.90;;;;;;5056122;28;20068;-72
2021/06/13 06:12:38;;;;;;;10.35;7.97;;;19.30;99.90;;;;;;5056384;28;20371;-72
2021/06/13 06:15:07;;;;;;;11.00;7.90;;;19.40;99.90;;;;;;5056253;28;20525;-72
2021/06/13 06:17:33;;;;;;;9.98;7.68;;;19.30;99.90;;;;;;5054810;28;20090;-71
2021/06/13 06:19:59;;;;;;;8.93;6.68;;;19.30;99.90;;;;;;5056165;28;20031;-73
2021/06/13 06:22:25;;;;;;;6.72;6.05;;;19.30;99.90;;;;;;5056296;28;20117;-72
2021/06/13 06:24:51;;;;;;;8.80;6.60;;;19.20;99.90;;;;;;5055971;28;20080;-71
2021/06/13 06:27:17;;;;;;;9.07;6.30;;;19.20;99.90;;;;;;5055825;28;20444;-72
2021/06/13 06:29:43;;;;;;;7.78;6.72;;;19.20;99.90;;;;;;5054801;28;20379;-72
2021/06/13 06:32:09;;;;;;;7.78;6.03;;;19.20;99.90;;;;;;5055848;28;20029;-72
2021/06/13 06:34:35;;;;;;;8.00;7.00;;;19.20;99.90;;;;;;5054661;28;20501;-71
2021/06/13 06:37:02;;;;;;;8.00;6.15;;;19.20;99.90;;;;;;5054642;28;20040;-73
2021/06/13 06:39:27;;;;;;;6.57;5.95;;;19.10;99.90;;;;;;5054272;28;20028;-75
2021/06/13 06:41:53;;;;;;;7.93;7.07;;;19.20;99.90;;;;;;5054613;28;20070;-72
2021/06/13 06:44:19;;;;;;;7.45;6.70;;;19.30;99.90;;;;;;5055858;28;20132;-72
2021/06/13 06:46:45;;;;;;;8.45;6.97;;;19.30;99.90;;;;;;5055750;28;20057;-71
2021/06/13 06:49:11;;;;;;;9.05;7.30;;;19.20;99.90;;;;;;5054481;28;20021;-72
2021/06/13 06:51:37;;;;;;;11.82;7.78;;;19.20;99.90;;;;;;5054450;28;20029;-72
2021/06/13 06:54:04;;;;;;;7.03;6.32;;;19.20;99.90;;;;;;5054448;28;20025;-71
2021/06/13 06:56:30;;;;;;;8.30;6.60;;;19.20;99.90;;;;;;5055643;28;20093;-71
2021/06/13 06:58:56;;;;;;;8.15;6.95;;;19.20;99.90;;;;;;5055388;28;20465;-70
2021/06/13 07:01:23;;;;;;;8.15;6.30;;;19.20;99.90;;;;;;5055526;28;20024;-71
2021/06/13 07:03:49;;;;;;;9.93;6.80;;;19.20;99.90;;;;;;5053575;28;20037;-71
2021/06/13 07:06:15;;;;;;;7.32;6.60;;;19.30;99.90;;;;;;5055456;28;20021;-72
2021/06/13 07:08:41;;;;;;;6.82;6.00;;;19.20;99.90;;;;;;5055322;28;20052;-72
2021/06/13 07:11:07;;;;;;;8.38;7.28;;;19.30;99.90;;;;;;5055371;28;20018;-72
2021/06/13 07:13:34;;;;;;;9.13;7.35;;;19.30;99.90;;;;;;5053944;28;20025;-72
2021/06/13 07:16:00;;;;;;;8.80;7.90;;;19.30;99.90;;;;;;5055287;28;20033;-70
2021/06/13 07:18:27;;;;;;;9.77;7.28;;;19.40;99.90;;;;;;5055162;28;20029;-71
2021/06/13 07:20:56;;;;;;;7.82;7.03;;;19.30;99.90;;;;;;5053797;28;20028;-71
2021/06/13 07:23:22;;;;;;;8.85;7.75;;;19.30;99.90;;;;;;5053936;28;20075;-72
2021/06/13 07:25:49;;;;;;;10.60;8.10;;;19.30;99.90;;;;;;5053275;28;20155;-71
2021/06/13 07:28:16;;;;;;;7.60;6.80;;;19.30;99.90;;;;;;5054980;28;20063;-71
2021/06/13 07:30:42;;;;;;;9.05;7.35;;;19.30;99.90;;;;;;5053674;28;20025;-72
2021/06/13 07:33:08;;;;;;;8.52;7.57;;;19.30;99.90;;;;;;5054657;28;20496;-71
2021/06/13 07:35:34;;;;;;;9.95;7.13;;;19.20;99.90;;;;;;5054892;28;20055;-71
2021/06/13 07:38:01;;;;;;;9.50;6.90;;;19.20;99.90;;;;;;5054848;28;20072;-72
2021/06/13 07:40:28;;;;;;;9.23;7.38;;;19.20;99.90;;;;;;5054796;28;20032;-72
2021/06/13 07:42:55;;;;;;;9.73;7.60;;;19.20;99.90;;;;;;5054757;28;20135;-73
2021/06/13 07:45:21;;;;;;;7.82;7.00;;;19.20;99.90;;;;;;5053438;28;20170;-72
2021/06/13 07:47:48;;;;;;;8.27;7.10;;;19.20;99.90;;;;;;5054232;28;20123;-71
2021/06/13 07:50:16;;;;;;;9.32;7.07;;;19.20;99.90;;;;;;5054943;28;20017;-71
2021/06/13 07:52:43;;;;;;;11.35;7.90;;;19.30;99.90;;;;;;5053285;28;20061;-72
2021/06/13 07:55:11;;;;;;;9.50;7.22;;;19.30;99.90;;;;;;5054274;28;20461;-72
2021/06/13 07:57:38;;;;;;;10.20;7.47;;;19.30;99.90;;;;;;5054326;28;20039;-72
2021/06/13 08:00:08;;;;;;;7.65;6.63;;;19.30;99.90;;;;;;5054380;28;20024;-72
2021/06/13 08:02:35;;;;;;;9.20;6.05;;;19.40;99.90;;;;;;5054059;28;20036;-72
2021/06/13 08:05:07;;;;;;;7.60;6.15;;;19.50;99.90;;;;;;5054304;28;20496;-74
2021/06/13 08:07:33;;;;;;;5.93;5.13;;;19.50;99.90;;;;;;5054305;28;20039;-70
2021/06/13 08:09:59;;;;;;;6.00;5.10;;;19.50;99.90;;;;;;5052965;28;20123;-70
2021/06/13 08:12:25;;;;;;;4.18;3.80;;;19.60;99.90;;;;;;5054240;28;20477;-71
2021/06/13 08:14:51;;;;;;;5.50;3.92;;;20.00;99.90;;;;;;5053766;28;20021;-71
2021/06/13 08:17:17;;;;;;;6.18;4.50;;;20.10;99.90;;;;;;5052779;28;20039;-72
2021/06/13 08:19:43;;;;;;;4.70;3.67;;;20.20;99.90;;;;;;5052702;28;20416;-71
2021/06/13 08:22:11;;;;;;;5.55;4.07;;;20.50;99.90;;;;;;5053702;28;20031;-72
2021/06/13 08:24:37;;;;;;;4.35;3.95;;;21.00;99.90;;;;;;5052405;28;20136;-70
2021/06/13 08:27:04;;;;;;;5.25;4.53;;;21.10;99.90;;;;;;5053778;28;20033;-72
2021/06/13 08:29:30;;;;;;;6.15;4.50;;;20.80;99.90;;;;;;5053828;28;20355;-73
2021/06/13 08:31:56;;;;;;;7.18;5.13;;;20.80;99.90;;;;;;5052509;28;20051;-71
2021/06/13 08:34:22;;;;;;;5.97;5.20;;;21.00;99.90;;;;;;5052634;28;20025;-72
2021/06/13 08:36:48;;;;;;;5.43;5.03;;;21.50;99.90;;;;;;5052854;28;20036;-72
2021/06/13 08:39:14;;;;;;;5.70;5.20;;;21.70;99.90;;;;;;5052196;28;20031;-72
2021/06/13 08:41:40;;;;;;;5.25;4.72;;;21.70;99.90;;;;;;5053696;28;20036;-70
2021/06/13 08:44:06;;;;;;;7.68;4.60;;;21.70;99.90;;;;;;5053999;28;20120;-69
2021/06/13 08:46:33;;;;;;;5.80;4.25;;;21.60;99.90;;;;;;5053840;28;20028;-71
2021/06/13 08:49:39;;;;;;;4.57;3.88;;;21.40;99.90;;;;;;5053414;28;20457;-70
2021/06/13 08:52:05;;;;;;;7.18;4.50;;;21.30;99.90;;;;;;5053700;28;20107;-71
2021/06/13 08:54:31;;;;;;;4.13;3.70;;;21.40;99.90;;;;;;5053508;28;20052;-73
2021/06/13 08:56:57;;;;;;;6.88;3.17;;;21.60;99.90;;;;;;5053027;28;20036;-73
2021/06/13 08:59:23;;;;;;;6.45;2.97;;;21.50;99.90;;;;;;5052000;28;20029;-71
2021/06/13 09:01:49;;;;;;;6.75;3.67;;;21.50;99.90;;;;;;5053011;28;20025;-70
2021/06/13 09:04:14;;;;;;;3.35;3.05;;;21.90;99.90;;;;;;5052002;28;20020;-71
2021/06/13 09:06:41;;;;;;;7.28;2.58;;;22.00;99.90;;;;;;5053121;28;20025;-68
2021/06/13 09:09:26;;;;;;;3.03;2.78;;;22.10;99.90;;;;;;5051896;28;20099;-71
2021/06/13 09:12:01;;;;;;;2.72;2.53;;;21.80;99.90;;;;;;5052600;28;20114;-70
2021/06/13 09:14:28;;;;;;;2.40;2.20;;;21.70;99.90;;;;;;5053465;28;20615;-73
2021/06/13 09:16:56;;;;;;;3.00;2.30;;;21.50;99.90;;;;;;5053070;28;20461;-72
2021/06/13 09:19:22;;;;;;;2.35;2.15;;;21.70;99.90;;;;;;5053057;28;20029;-70
2021/06/13 09:21:49;;;;;;;3.60;1.95;;;22.30;99.90;;;;;;5053017;28;20035;-73
2021/06/13 09:24:20;;;;;;;2.42;1.50;;;22.20;99.90;;;;;;5052744;28;20033;-71
2021/06/13 09:26:46;;;;;;;2.53;1.60;;;21.90;99.90;;;;;;5052520;28;20543;-72
2021/06/13 09:29:12;;;;;;;2.90;1.52;;;21.70;99.90;;;;;;5051611;28;20068;-73
2021/06/13 09:31:38;;;;;;;2.42;1.80;;;21.90;99.90;;;;;;5052920;28;20036;-70
2021/06/13 09:34:05;;;;;;;3.83;1.60;;;22.10;99.70;;;;;;5052972;28;20025;-72
2021/06/13 09:36:33;;;;;;;2.53;1.80;;;22.40;99.60;;;;;;5052860;28;20366;-71
2021/06/13 09:39:05;;;;;;;2.15;1.50;;;22.90;99.80;;;;;;5053145;28;20040;-71
2021/06/13 09:41:31;;;;;;;;;;;22.60;98.50;;;;;;5053300;28;20374;-71
2021/06/13 09:44:06;;;;;;;3.55;1.60;;;23.30;98.50;;;;;;5052925;28;19912;-71
2021/06/13 09:46:36;;;;;;;2.60;1.50;;;22.90;97.40;;;;;;5050803;28;20092;-71
2021/06/13 09:49:10;;;;;;;5.32;1.77;;;22.90;97.20;;;;;;5052572;28;20124;-72
2021/06/13 09:51:39;;;;;;;3.97;1.60;;;23.60;96.50;;;;;;5051425;28;20121;-72
2021/06/13 09:54:08;;;;;;;3.13;1.40;;;23.40;95.90;;;;;;5052776;28;20087;-72
2021/06/13 09:56:36;;;;;;;4.38;2.10;;;23.80;95.80;;;;;;5051381;28;20029;-68
2021/06/13 09:59:08;;;;;;;3.53;1.40;;;23.90;95.20;;;;;;5052731;28;20025;-69
2021/06/13 10:01:40;;;;;;;2.05;1.60;;;24.00;94.50;;;;;;5048794;28;20017;-70
2021/06/13 10:04:17;;;;;;;4.10;1.63;;;24.20;94.30;;;;;;5050583;28;20063;-71
2021/06/13 10:06:45;;;;;;;3.08;1.52;;;23.60;94.10;;;;;;5049513;28;20029;-68
2021/06/13 10:09:11;;;;;;;2.85;1.50;;;23.70;94.10;;;;;;5050881;28;20032;-73
2021/06/13 10:11:39;;;;;;;1.92;1.40;;;24.10;93.80;;;;;;5051981;28;20025;-72
2021/06/13 10:14:06;;;;;;;4.38;1.35;;;;;;;;;;5052178;28;20111;-69
2021/06/13 10:16:48;;;;;;;2.45;1.55;;;24.60;93.20;;;;;;5050971;28;20021;-69
2021/06/13 10:19:16;;;;;;;3.15;1.27;;;24.70;93.10;;;;;;5052546;28;20025;-71
2021/06/13 10:21:46;;;;;;;7.20;1.55;;;24.70;90.90;;;;;;5051165;28;20064;-69
2021/06/13 10:24:24;;;;;;;1.83;1.42;;;24.80;91.30;;;;;;5052194;28;20029;-69
2021/06/13 10:26:53;;;;;;;5.07;1.25;;;25.20;91.00;;;;;;5051036;28;20083;-70
2021/06/13 10:29:20;;;;;;;5.60;1.45;;;25.60;90.60;;;;;;5052711;28;20083;-69
2021/06/13 10:31:48;;;;;;;3.25;1.60;;;;;;;;;;5052322;28;20025;-70
2021/06/13 10:34:15;;;;;;;1.83;1.73;;;;;;;;;;5052333;28;20021;-69
2021/06/13 10:36:42;;;;;;;1.83;1.70;;;;;;;;;;5050943;28;20112;-70
2021/06/13 10:39:10;;;;;;;2.38;1.23;;;;;;;;;;5053581;28;20021;-71
2021/06/13 10:41:36;;;;;;;1.52;1.38;;;;;;;;;;5055692;28;20055;-71
2021/06/13 10:44:11;;;;;;;1.75;1.20;;;26.20;81.50;;;;;;5055774;28;20021;-71
2021/06/13 10:46:42;;;;;;;4.05;1.50;;;26.60;83.20;;;;;;5055676;28;20027;-70
2021/06/13 10:49:27;;;;;;;4.43;1.48;;;;;;;;;;5055661;28;20064;-71
2021/06/13 10:52:13;;;;;;;4.60;1.40;;;;;;;;;;5055514;28;20028;-69
2021/06/13 10:54:40;;;;;;;4.28;1.70;;;;;;;;;;5055197;28;20124;-71
2021/06/13 10:57:09;;;;;;;1.98;1.55;;;;;;;;;;5055586;28;20108;-71
2021/06/13 10:59:37;;;;;;;4.53;1.55;;;;;;;;;;5055304;28;20029;-71
2021/06/13 11:02:08;;;;;;;2.42;1.40;;;;;;;;;;5055538;28;20017;-71
2021/06/13 11:04:47;;;;;;;3.10;1.35;;;;;;;;;;5054713;28;20021;-70
2021/06/13 11:07:29;;;;;;;2.40;1.85;;;;;;;;;;5055420;28;20087;-72
2021/06/13 11:09:55;;;;;;;;;;;;;;;;;;5054521;28;20021;-69
2021/06/13 11:12:40;;;;;;;1.23;1.20;;;;;;;;;;5054058;28;20399;-71
2021/06/13 11:15:07;;;;;;;2.00;1.65;;;;;;;;;;5055344;28;20025;-70
2021/06/13 11:17:52;;;;;;;2.75;1.30;;;;;;;;;;5054986;28;20473;-72
2021/06/13 11:20:32;;;;;;;3.75;1.73;;;;;;;;;;5055251;28;20032;-70
2021/06/13 11:22:59;;;;;;;2.60;1.35;;;;;;;;;;5055484;28;20025;-67
2021/06/13 11:25:26;;;;;;;6.97;1.67;;;;;;;;;;5054517;28;20053;-71
2021/06/13 11:28:08;;;;;;;1.50;1.40;;;;;;;;;;5053694;28;20033;-73
2021/06/13 11:30:34;;;;;;;2.72;1.42;;;;;;;;;;5053654;28;20469;-69
2021/06/13 11:33:01;;;;;;;1.70;1.48;;;;;;;;;;5054939;28;20491;-70
2021/06/13 11:35:31;;;;;;;2.70;1.63;;;;;;;;;;5053639;28;20025;-70
2021/06/13 11:38:17;;;;;;;1.55;1.38;;;;;;;;;;5054476;28;20029;-69
2021/06/13 11:40:48;;;;;;;3.45;1.52;;;;;;;;;;5069885;28;20132;-71
2021/06/13 11:43:16;;;;;;;1.55;1.30;;;;;;;;;;5054747;28;20017;-70
2021/06/13 11:45:54;;;;;;;2.05;1.30;;;;;;;;;;5054698;28;20043;-71
2021/06/13 11:48:26;;;;;;;1.10;1.10;;;;;;;;;;5052877;28;20032;-69
2021/06/13 11:51:07;;;;;;;1.48;1.30;;;;;;;;;;5054649;28;20032;-71
2021/06/13 11:53:51;;;;;;;3.42;1.48;;;;;;;;;;5054517;28;20025;-71
2021/06/13 11:56:33;;;;;;;1.60;1.20;;;;;;;;;;5054577;28;20025;-69
2021/06/13 11:58:59;;;;;;;;;;;;;;;;;;5053265;28;20028;-69
2021/06/13 12:01:26;;;;;;;2.35;1.20;;;;;;;;;;5054431;28;20345;-70
2021/06/13 12:03:52;;;;;;;1.45;1.35;;;;;;;;;;5054129;28;20230;-69
2021/06/13 12:06:19;;;;;;;0.95;0.95;;;;;;;;;;5054480;28;20133;-67
2021/06/13 12:08:46;;;;;;;3.35;1.30;;;;;;;;;;5052374;28;20132;-69
2021/06/13 12:11:31;;;;;;;3.50;1.25;;;;;;;;;;5052555;28;20021;-69
2021/06/13 12:13:59;;;;;;;2.75;1.25;;;;;;;;;;5054076;28;20108;-68
2021/06/13 12:16:27;;;;;;;1.63;1.30;;;;;;;;;;5054149;28;20032;-69
2021/06/13 12:19:01;;;;;;;2.90;1.38;;;;;;;;;;5052716;28;20521;-69
2021/06/13 12:21:28;;;;;;;3.20;1.17;;;;;;;;;;5054057;28;20036;-68
2021/06/13 12:24:02;;;;;;;1.20;1.10;;;;;;;;;;5053723;28;20421;-69
2021/06/13 12:29:27;;;;;;;4.82;1.23;;;;;;;;;;5053979;28;20039;-68
2021/06/13 12:31:54;;;;;;;2.65;1.27;;;;;;;;;;5052525;28;20071;-67
2021/06/13 12:34:21;;;;;;;2.85;1.40;;;;;;;;;;5053535;28;20068;-71
2021/06/13 12:36:51;;;;;;;5.07;0.90;;;;;;;;;;5053778;28;20025;-71
2021/06/13 12:39:38;;;;;;;1.23;0.88;;;;;;;;;;5052426;28;20116;-69
2021/06/13 12:42:11;;;;;;;1.13;1.00;;;;;;;;;;5086023;28;20381;-69
2021/06/13 12:44:38;;;;;;;3.35;0.75;;;;;;;;;;5053954;28;20024;-69
2021/06/13 12:47:05;;;;;;;2.15;1.15;;;;;;;;;;5053567;28;20013;-72
2021/06/13 12:49:41;;;;;;;2.05;0.93;;;;;;;;;;5053533;28;20096;-68
2021/06/13 12:52:14;;;;;;;8.23;1.85;;;;;;;;;;5053883;28;20020;-69
2021/06/13 12:54:41;;;;;;;0.80;0.80;;;;;;;;;;5053527;28;20044;-71
2021/06/13 12:57:09;;;;;;;2.40;0.82;;;;;;;;;;5053401;28;20078;-72
2021/06/13 12:59:38;;;;;;;1.80;0.80;;;;;;;;;;5053336;28;20036;-69
2021/06/13 13:02:09;;;;;;;4.75;1.05;;;;;;;;;;5052634;28;20025;-69
2021/06/13 13:04:45;;;;;;;3.73;1.10;;;;;;;;;;5051383;28;20466;-70
2021/06/13 13:07:12;;;;;;;4.00;1.20;;;;;;;;;;5052870;28;20033;-69
2021/06/13 13:10:04;;;;;;;1.20;0.82;;;;;;;;;;5052950;28;20021;-69
2021/06/13 13:12:31;;;;;;;0.82;0.82;;;;;;;;;;5014093;28;20056;-70
2021/06/13 13:15:10;;;;;;;1.25;0.80;;;;;;;;;;5053026;28;20025;-72
2021/06/13 13:17:37;;;;;;;1.10;1.00;;;;;;;;;;5051602;28;20032;-67
2021/06/13 13:20:15;;;;;;;2.83;0.95;;;;;;;;;;5052915;28;20363;-69